Time;durP1;ratioP1;P1;durP2;ratioP2;P2;SDS_P1;SDS_P2;PMS_P1;PMS_P2;Temp;Humidity;BMP_temperature;BMP_pressure;BME280_temperature;BME280_humidity;BME280_pressure;Samples;Min_cycle;Max_cycle;Signal;HPM_P1;HPM_P2
2023/03/27 00:01:35;;;;;;;0.20;0.20;;;;;;;;;;5000798;28;86285;-50
2023/03/27 00:04:05;;;;;;;0.30;0.30;;;;;;;;;;5001919;28;88323;-50
2023/03/27 00:06:33;;;;;;;0.30;0.30;;;;;;;;;;4998138;28;88784;-49
2023/03/27 00:09:03;;;;;;;0.40;0.30;;;;;;;;;;4996878;28;87965;-49
2023/03/27 00:11:31;;;;;;;0.20;0.20;;;;;;;;;;5001826;28;86990;-49
2023/03/27 00:14:00;;;;;;;1.17;0.40;;;;;;;;;;5001374;28;89224;-50
2023/03/27 00:16:29;;;;;;;0.43;0.40;;;;;;;;;;5000698;28;88981;-49
2023/03/27 00:18:57;;;;;;;0.40;0.40;;;;;;;;;;5002695;28;86995;-49
2023/03/27 00:21:27;;;;;;;0.30;0.30;;;;;;;;;;5001966;28;87114;-50
2023/03/27 00:23:55;;;;;;;0.37;0.37;;;;;;;;;;5000357;28;88134;-50
2023/03/27 00:26:24;;;;;;;0.60;0.40;;;;;;;;;;5001414;28;88874;-49
2023/03/27 00:28:53;;;;;;;4.40;0.30;;;;;;;;;;5001436;28;88623;-49
2023/03/27 00:31:22;;;;;;;0.83;0.43;;;;;;;;;;4999178;28;87281;-50
2023/03/27 00:33:50;;;;;;;0.93;0.47;;;;;;;;;;5001053;28;90105;-50
2023/03/27 00:36:18;;;;;;;0.27;0.27;;;;;;;;;;5000815;28;89982;-50
2023/03/27 00:38:51;;;;;;;0.60;0.40;;;;;;;;;;5001484;28;87153;-49
2023/03/27 00:41:20;;;;;;;3.20;0.30;;;;;;;;;;5000479;28;87342;-50
2023/03/27 00:43:48;;;;;;;0.30;0.30;;;;;;;;;;5001408;28;89125;-50
2023/03/27 00:46:23;;;;;;;0.20;0.20;;;;;;;;;;5001242;28;87117;-50
2023/03/27 00:48:51;;;;;;;0.67;0.40;;;;;;;;;;5001068;28;86996;-49
2023/03/27 00:51:19;;;;;;;0.40;0.30;;;;;;;;;;5000709;28;86905;-50
2023/03/27 00:53:49;;;;;;;0.70;0.70;;;;;;;;;;4996675;28;87734;-50
2023/03/27 00:56:17;;;;;;;0.90;0.47;;;;;;;;;;5001168;28;90773;-49
2023/03/27 00:58:47;;;;;;;0.20;0.20;;;;;;;;;;5000459;28;87929;-50
2023/03/27 01:01:15;;;;;;;0.50;0.50;;;;;;;;;;5001631;28;87159;-49
2023/03/27 01:03:45;;;;;;;0.30;0.30;;;;;;;;;;5000842;28;88838;-49
2023/03/27 01:06:15;;;;;;;0.93;0.30;;;;;;;;;;4998083;28;87238;-49
2023/03/27 01:08:44;;;;;;;0.30;0.30;;;;;;;;;;4998846;28;88515;-49
2023/03/27 01:11:16;;;;;;;1.00;0.40;;;;;;;;;;4999639;28;87138;-50
2023/03/27 01:13:48;;;;;;;0.50;0.50;;;;;;;;;;4997237;28;88178;-49
2023/03/27 01:16:18;;;;;;;0.90;0.40;;;;;;;;;;5000054;28;88805;-50
2023/03/27 01:18:52;;;;;;;0.53;0.47;;;;;;;;;;5001172;28;87079;-50
2023/03/27 01:21:47;;;;;;;0.20;0.20;;;;;;;;;;5001492;28;87571;-49
2023/03/27 01:24:20;;;;;;;0.30;0.30;;;;;;;;;;5000413;28;89071;-49
2023/03/27 01:26:57;;;;;;;0.30;0.30;;;;;;;;;;4999585;28;88652;-49
2023/03/27 01:29:44;;;;;;;0.37;0.37;;;;;;;;;;5000662;28;87743;-50
2023/03/27 01:32:24;;;;;;;0.40;0.20;;;;;;;;;;4997134;28;87114;-49
2023/03/27 01:35:05;;;;;;;0.40;0.40;;;;;;;;;;4998329;28;88067;-50
2023/03/27 01:37:49;;;;;;;0.57;0.40;;;;;;;;;;4998555;28;87819;-49
2023/03/27 01:40:18;;;;;;;0.50;0.50;;;;;;;;;;4983015;28;87128;-49
2023/03/27 01:42:48;;;;;;;0.30;0.30;;;;;;;;;;5000290;28;86283;-49
2023/03/27 01:45:17;;;;;;;0.40;0.40;;;;;;;;;;5000512;28;89531;-50
2023/03/27 01:47:46;;;;;;;1.03;0.47;;;;;;;;;;4999837;28;88826;-50
2023/03/27 01:50:18;;;;;;;0.30;0.30;;;;;;;;;;4999455;28;89391;-50
2023/03/27 01:52:48;;;;;;;0.50;0.20;;;;;;;;;;4996527;28;87020;-50
2023/03/27 01:55:17;;;;;;;0.57;0.23;;;;;;;;;;5000482;28;89617;-50
2023/03/27 01:57:49;;;;;;;0.20;0.20;;;;;;;;;;4997594;28;87761;-49
2023/03/27 02:00:20;;;;;;;0.40;0.40;;;;;;;;;;4998515;28;87076;-50
2023/03/27 02:02:50;;;;;;;0.20;0.20;;;;;;;;;;4999427;28;87614;-50
2023/03/27 02:05:20;;;;;;;0.40;0.40;;;;;;;;;;4999358;28;89195;-49
2023/03/27 02:07:50;;;;;;;0.27;0.27;;;;;;;;;;4999966;28;88958;-49
2023/03/27 02:10:20;;;;;;;0.30;0.30;;;;;;;;;;5000161;28;87120;-49
2023/03/27 02:12:50;;;;;;;0.37;0.20;;;;;;;;;;5000234;28;87027;-50
2023/03/27 02:15:19;;;;;;;0.87;0.53;;;;;;;;;;4999840;28;90112;-50
2023/03/27 02:17:55;;;;;;;1.70;0.40;;;;;;;;;;4999860;28;89821;-49
2023/03/27 02:20:24;;;;;;;0.53;0.30;;;;;;;;;;5000218;28;87025;-49
2023/03/27 02:22:52;;;;;;;0.40;0.40;;;;;;;;;;4995365;28;87575;-50
2023/03/27 02:25:25;;;;;;;0.30;0.30;;;;;;;;;;5000051;28;89311;-49
2023/03/27 02:27:56;;;;;;;0.47;0.20;;;;;;;;;;4999698;28;87917;-50
2023/03/27 02:30:25;;;;;;;0.53;0.50;;;;;;;;;;5000039;28;86998;-50
2023/03/27 02:32:55;;;;;;;0.20;0.20;;;;;;;;;;4999969;28;86320;-50
2023/03/27 02:35:26;;;;;;;0.30;0.30;;;;;;;;;;4995797;28;86968;-50
2023/03/27 02:37:57;;;;;;;0.50;0.50;;;;;;;;;;4999473;28;88910;-50
2023/03/27 02:40:30;;;;;;;0.43;0.43;;;;;;;;;;4999333;28;88437;-50
2023/03/27 02:43:01;;;;;;;0.77;0.40;;;;;;;;;;4999987;28;86919;-50
2023/03/27 02:45:31;;;;;;;0.30;0.30;;;;;;;;;;4999207;28;87118;-50
2023/03/27 02:48:00;;;;;;;0.40;0.40;;;;;;;;;;4999051;28;88951;-49
2023/03/27 02:50:31;;;;;;;0.33;0.30;;;;;;;;;;4999738;28;87588;-50
2023/03/27 02:52:59;;;;;;;2.57;0.20;;;;;;;;;;4999821;28;86975;-50
2023/03/27 02:55:29;;;;;;;0.50;0.30;;;;;;;;;;4998113;28;87984;-50
2023/03/27 02:57:58;;;;;;;0.40;0.40;;;;;;;;;;4999386;28;87863;-49
2023/03/27 03:00:28;;;;;;;0.30;0.30;;;;;;;;;;4997354;28;87131;-50
2023/03/27 03:02:58;;;;;;;0.20;0.20;;;;;;;;;;4999694;28;87170;-50
2023/03/27 03:05:27;;;;;;;0.33;0.33;;;;;;;;;;4998438;28;90140;-50
2023/03/27 03:07:56;;;;;;;2.60;0.30;;;;;;;;;;4999277;28;88771;-50
2023/03/27 03:10:25;;;;;;;0.30;0.30;;;;;;;;;;4999235;28;87006;-49
2023/03/27 03:12:53;;;;;;;0.40;0.40;;;;;;;;;;4999387;28;87079;-50
2023/03/27 03:15:21;;;;;;;0.30;0.30;;;;;;;;;;4999389;28;89094;-49
2023/03/27 03:17:51;;;;;;;0.10;0.10;;;;;;;;;;4999342;28;87691;-49
2023/03/27 03:20:20;;;;;;;0.20;0.20;;;;;;;;;;4999229;28;87019;-50
2023/03/27 03:22:48;;;;;;;0.47;0.30;;;;;;;;;;4999331;28;86278;-50
2023/03/27 03:25:18;;;;;;;0.83;0.40;;;;;;;;;;4999300;28;88256;-49
2023/03/27 03:27:46;;;;;;;0.87;0.20;;;;;;;;;;4999033;28;89023;-49
2023/03/27 03:30:15;;;;;;;0.30;0.30;;;;;;;;;;4999203;28;87998;-50
2023/03/27 03:32:45;;;;;;;0.20;0.20;;;;;;;;;;4995560;28;88237;-50
2023/03/27 03:35:16;;;;;;;1.30;0.53;;;;;;;;;;4999313;28;87953;-50
2023/03/27 03:37:49;;;;;;;0.50;0.50;;;;;;;;;;4996600;28;88918;-50
2023/03/27 03:40:18;;;;;;;0.30;0.30;;;;;;;;;;5002628;28;87045;-49
2023/03/27 03:42:46;;;;;;;0.20;0.20;;;;;;;;;;5002604;28;87057;-50
2023/03/27 03:45:15;;;;;;;1.50;0.27;;;;;;;;;;5000286;28;88346;-49
2023/03/27 03:47:43;;;;;;;0.50;0.50;;;;;;;;;;5002366;28;87655;-49
2023/03/27 03:50:12;;;;;;;0.30;0.30;;;;;;;;;;5001748;28;88475;-50
2023/03/27 03:52:42;;;;;;;0.20;0.20;;;;;;;;;;5002525;28;87061;-49
2023/03/27 03:55:10;;;;;;;0.50;0.33;;;;;;;;;;5001879;28;89689;-50
2023/03/27 03:57:40;;;;;;;0.20;0.20;;;;;;;;;;5002078;28;90077;-50
2023/03/27 04:00:11;;;;;;;1.47;0.40;;;;;;;;;;5001943;28;87145;-50
2023/03/27 04:02:42;;;;;;;0.20;0.20;;;;;;;;;;5002487;28;86989;-50
2023/03/27 04:05:10;;;;;;;0.30;0.30;;;;;;;;;;5001572;28;87839;-50
2023/03/27 04:07:39;;;;;;;0.40;0.40;;;;;;;;;;5002461;28;87874;-50
2023/03/27 04:10:10;;;;;;;0.20;0.20;;;;;;;;;;5002311;28;87171;-50
2023/03/27 04:12:38;;;;;;;0.50;0.30;;;;;;;;;;4998288;28;87567;-50
2023/03/27 04:15:08;;;;;;;0.23;0.23;;;;;;;;;;4999714;28;88165;-50
2023/03/27 04:17:37;;;;;;;0.40;0.40;;;;;;;;;;5001379;28;88797;-50
2023/03/27 04:20:06;;;;;;;0.83;0.27;;;;;;;;;;5000795;28;87938;-50
2023/03/27 04:22:36;;;;;;;2.10;0.60;;;;;;;;;;5000133;28;87210;-50
2023/03/27 04:25:05;;;;;;;0.37;0.37;;;;;;;;;;5001854;28;89281;-50
2023/03/27 04:27:35;;;;;;;0.33;0.33;;;;;;;;;;4997996;28;87810;-50
2023/03/27 04:30:07;;;;;;;0.40;0.40;;;;;;;;;;5001351;28;87232;-50
2023/03/27 04:32:35;;;;;;;0.50;0.43;;;;;;;;;;5001567;28;87149;-50
2023/03/27 04:35:04;;;;;;;0.43;0.40;;;;;;;;;;5000864;28;88038;-50
2023/03/27 04:37:32;;;;;;;0.70;0.40;;;;;;;;;;5001805;28;87842;-50
2023/03/27 04:40:03;;;;;;;0.20;0.20;;;;;;;;;;5001329;28;87190;-50
2023/03/27 04:42:32;;;;;;;0.30;0.30;;;;;;;;;;5001249;28;87088;-49
2023/03/27 04:45:03;;;;;;;0.30;0.30;;;;;;;;;;5000331;28;90090;-50
2023/03/27 04:47:31;;;;;;;0.47;0.47;;;;;;;;;;5000668;28;88708;-50
2023/03/27 04:49:59;;;;;;;0.20;0.20;;;;;;;;;;5001254;28;87455;-49
2023/03/27 04:52:28;;;;;;;0.20;0.20;;;;;;;;;;4998534;28;87140;-50
2023/03/27 04:54:57;;;;;;;0.30;0.30;;;;;;;;;;4997377;28;87038;-50
2023/03/27 04:57:26;;;;;;;0.30;0.30;;;;;;;;;;5001200;28;87781;-49
2023/03/27 04:59:55;;;;;;;0.47;0.47;;;;;;;;;;5001130;28;87028;-49
2023/03/27 05:02:25;;;;;;;0.20;0.20;;;;;;;;;;5000969;28;86152;-50
2023/03/27 05:04:57;;;;;;;0.40;0.40;;;;;;;;;;5000243;28;87699;-49
2023/03/27 05:07:27;;;;;;;0.37;0.33;;;;;;;;;;5001101;28;87044;-50
2023/03/27 05:09:56;;;;;;;0.40;0.40;;;;;;;;;;5000741;28;88072;-49
2023/03/27 05:12:24;;;;;;;0.60;0.50;;;;;;;;;;5000782;28;87106;-49
2023/03/27 05:14:53;;;;;;;0.30;0.30;;;;;;;;;;4999812;28;89393;-50
2023/03/27 05:17:24;;;;;;;1.43;0.30;;;;;;;;;;5000248;28;87902;-49
2023/03/27 05:19:55;;;;;;;0.30;0.30;;;;;;;;;;5001005;28;87205;-50
2023/03/27 05:22:23;;;;;;;0.20;0.20;;;;;;;;;;5000301;28;87096;-49
2023/03/27 05:24:52;;;;;;;0.27;0.27;;;;;;;;;;5000741;28;89279;-50
2023/03/27 05:27:20;;;;;;;0.30;0.30;;;;;;;;;;5000729;28;88954;-49
2023/03/27 05:29:49;;;;;;;0.30;0.30;;;;;;;;;;5000856;28;86869;-50
2023/03/27 05:32:17;;;;;;;0.47;0.47;;;;;;;;;;4996080;28;87065;-50
2023/03/27 05:34:49;;;;;;;0.30;0.30;;;;;;;;;;5000695;28;89059;-50
2023/03/27 05:37:19;;;;;;;0.23;0.23;;;;;;;;;;4992778;28;88714;-49
2023/03/27 05:39:47;;;;;;;2.00;0.37;;;;;;;;;;4987863;28;87013;-49
2023/03/27 05:42:15;;;;;;;0.37;0.37;;;;;;;;;;4992746;28;87196;-49
2023/03/27 05:44:44;;;;;;;0.50;0.50;;;;;;;;;;5001619;28;89116;-49
2023/03/27 05:47:13;;;;;;;0.30;0.30;;;;;;;;;;5000376;28;87949;-49
2023/03/27 05:49:41;;;;;;;0.20;0.20;;;;;;;;;;5001561;28;86966;-49
2023/03/27 05:52:09;;;;;;;0.60;0.60;;;;;;;;;;5001862;28;86279;-49
2023/03/27 05:54:39;;;;;;;0.30;0.30;;;;;;;;;;5000926;28;88257;-50
2023/03/27 05:57:07;;;;;;;0.40;0.30;;;;;;;;;;4999267;28;88915;-49
2023/03/27 05:59:36;;;;;;;0.93;0.50;;;;;;;;;;4981521;28;87905;-50
2023/03/27 06:02:05;;;;;;;0.97;0.60;;;;;;;;;;4983321;28;87135;-50
2023/03/27 06:04:33;;;;;;;0.67;0.60;;;;;;;;;;4987568;28;89284;-50
2023/03/27 06:07:02;;;;;;;0.50;0.50;;;;;;;;;;4992987;28;88958;-49
2023/03/27 06:09:30;;;;;;;0.53;0.53;;;;;;;;;;4997533;28;87011;-50
2023/03/27 06:12:00;;;;;;;0.63;0.63;;;;;;;;;;4994262;28;87766;-49
2023/03/27 06:14:28;;;;;;;0.57;0.57;;;;;;;;;;5001997;28;89115;-50
2023/03/27 06:16:56;;;;;;;0.97;0.97;;;;;;;;;;5001631;28;89000;-49
2023/03/27 06:19:25;;;;;;;1.97;0.60;;;;;;;;;;5002165;28;87035;-49
2023/03/27 06:21:53;;;;;;;0.67;0.40;;;;;;;;;;5001187;28;87052;-49
2023/03/27 06:24:22;;;;;;;0.77;0.60;;;;;;;;;;5000822;28;88075;-50
2023/03/27 06:26:50;;;;;;;1.63;0.70;;;;;;;;;;5001151;28;89909;-49
2023/03/27 06:29:20;;;;;;;0.73;0.73;;;;;;;;;;5001356;28;87017;-49
2023/03/27 06:31:48;;;;;;;1.30;1.03;;;;;;;;;;5001020;28;86929;-49
2023/03/27 06:34:16;;;;;;;0.50;0.50;;;;;;;;;;5001278;28;87700;-49
2023/03/27 06:36:45;;;;;;;0.77;0.77;;;;;;;;;;5000822;28;87966;-49
2023/03/27 06:39:13;;;;;;;3.03;0.93;;;;;;;;;;5002132;28;87063;-49
2023/03/27 06:41:41;;;;;;;2.23;0.93;;;;;;;;;;5001488;28;86125;-49
2023/03/27 06:44:09;;;;;;;0.90;0.70;;;;;;;;;;4997855;28;88151;-49
2023/03/27 06:46:39;;;;;;;1.10;0.77;;;;;;;;;;4995315;28;89033;-49
2023/03/27 06:49:13;;;;;;;1.13;0.87;;;;;;;;;;4999447;28;87947;-49
2023/03/27 06:51:41;;;;;;;0.90;0.90;;;;;;;;;;4997636;28;87084;-49
2023/03/27 06:54:11;;;;;;;1.73;0.90;;;;;;;;;;4999422;28;88406;-49
2023/03/27 06:56:39;;;;;;;0.67;0.67;;;;;;;;;;4998123;28;89098;-49
2023/03/27 06:59:07;;;;;;;1.07;0.83;;;;;;;;;;4993427;28;87156;-49
2023/03/27 07:01:36;;;;;;;1.10;0.90;;;;;;;;;;5000524;28;86997;-49
2023/03/27 07:04:06;;;;;;;1.10;0.80;;;;;;;;;;4981219;28;88148;-49
2023/03/27 07:06:34;;;;;;;1.37;0.70;;;;;;;;;;4992532;28;88981;-50
2023/03/27 07:09:04;;;;;;;0.83;0.67;;;;;;;;;;4981556;28;87050;-50
2023/03/27 07:11:33;;;;;;;1.73;0.83;;;;;;;;;;4994845;28;87118;-49
2023/03/27 07:14:02;;;;;;;1.20;0.63;;;;;;;;;;4991024;28;89340;-49
2023/03/27 07:16:30;;;;;;;0.83;0.83;;;;;;;;;;5000848;28;89891;-49
2023/03/27 07:18:59;;;;;;;1.97;0.83;;;;;;;;;;5003802;28;86998;-50
2023/03/27 07:21:31;;;;;;;0.97;0.60;;;;;;;;;;5003530;28;87152;-49
2023/03/27 07:23:59;;;;;;;2.53;0.97;;;;;;;;;;4990303;28;89114;-49
2023/03/27 07:26:28;;;;;;;3.60;1.20;;;;;;;;;;5003763;28;87946;-50
2023/03/27 07:28:59;;;;;;;0.63;0.60;;;;;;;;;;5004937;28;87181;-50
2023/03/27 07:31:27;;;;;;;0.77;0.73;;;;;;;;;;5002619;28;86400;-50
2023/03/27 07:34:16;;;;;;;5.43;0.83;;;;;;;;;;5003418;28;87064;-50
2023/03/27 07:36:46;;;;;;;1.07;0.50;;;;;;;;;;5002827;28;87799;-49
2023/03/27 07:39:14;;;;;;;0.97;0.73;;;;;;;;;;5003148;28;88201;-50
2023/03/27 07:41:42;;;;;;;1.87;0.77;;;;;;;;;;4997398;28;88254;-50
2023/03/27 07:44:11;;;;;;;1.13;0.80;;;;;;;;;;5003908;28;88973;-50
2023/03/27 07:46:39;;;;;;;0.53;0.53;;;;;;;;;;5004410;28;88892;-50
2023/03/27 07:49:08;;;;;;;0.77;0.40;;;;;;;;;;5004402;28;87018;-50
2023/03/27 07:51:36;;;;;;;0.33;0.33;;;;;;;;;;5004082;28;86905;-50
2023/03/27 07:54:06;;;;;;;0.50;0.50;;;;;;;;;;5003978;28;89311;-50
2023/03/27 07:56:34;;;;;;;0.50;0.50;;;;;;;;;;5004214;28;88981;-50
2023/03/27 07:59:03;;;;;;;0.87;0.63;;;;;;;;;;5004076;28;87022;-50
2023/03/27 08:01:31;;;;;;;2.20;0.87;;;;;;;;;;5004023;28;87066;-49
2023/03/27 08:03:59;;;;;;;0.40;0.40;;;;;;;;;;5002884;28;87894;-49
2023/03/27 08:06:28;;;;;;;0.47;0.43;;;;;;;;;;4995635;28;88741;-50
2023/03/27 08:08:57;;;;;;;0.40;0.40;;;;;;;;;;5004092;28;86966;-50
2023/03/27 08:11:27;;;;;;;0.93;0.70;;;;;;;;;;5004007;28;87167;-50
2023/03/27 08:13:58;;;;;;;1.20;0.60;;;;;;;;;;5003506;28;89087;-50
2023/03/27 08:16:28;;;;;;;0.70;0.47;;;;;;;;;;5003770;28;87140;-49
2023/03/27 08:18:57;;;;;;;0.37;0.37;;;;;;;;;;5004210;28;86907;-50
2023/03/27 08:21:25;;;;;;;1.67;0.53;;;;;;;;;;5003038;28;85980;-50
2023/03/27 08:23:54;;;;;;;3.00;0.67;;;;;;;;;;5003552;28;89251;-50
2023/03/27 08:26:26;;;;;;;0.67;0.67;;;;;;;;;;5003442;28;87006;-50
2023/03/27 08:28:55;;;;;;;1.27;0.63;;;;;;;;;;5003451;28;87888;-50
2023/03/27 08:31:24;;;;;;;1.90;0.50;;;;;;;;;;5003509;28;87093;-50
2023/03/27 08:33:52;;;;;;;0.30;0.30;;;;;;;;;;5003433;28;88009;-50
2023/03/27 08:36:21;;;;;;;0.40;0.40;;;;;;;;;;5002878;28;87984;-50
2023/03/27 08:38:50;;;;;;;1.07;0.30;;;;;;;;;;5003776;28;86836;-50
2023/03/27 08:41:27;;;;;;;0.57;0.50;;;;;;;;;;5003561;28;87113;-49
2023/03/27 08:43:56;;;;;;;0.30;0.30;;;;;;;;;;5002949;28;87948;-50
2023/03/27 08:46:27;;;;;;;2.80;0.50;;;;;;;;;;5003578;28;87707;-49
2023/03/27 08:48:57;;;;;;;0.40;0.40;;;;;;;;;;5003389;28;87013;-49
2023/03/27 08:51:26;;;;;;;0.40;0.30;;;;;;;;;;5003435;28;87086;-50
2023/03/27 08:53:55;;;;;;;0.43;0.40;;;;;;;;;;5002507;28;89259;-49
2023/03/27 08:56:24;;;;;;;0.20;0.20;;;;;;;;;;5003195;28;89879;-50
2023/03/27 08:58:53;;;;;;;1.03;0.30;;;;;;;;;;5003307;28;87002;-50
2023/03/27 09:01:24;;;;;;;1.37;0.57;;;;;;;;;;5002693;28;87140;-50
2023/03/27 09:03:55;;;;;;;1.63;0.40;;;;;;;;;;5002337;28;88106;-50
2023/03/27 09:06:25;;;;;;;0.30;0.30;;;;;;;;;;5002701;28;86793;-50
2023/03/27 09:08:56;;;;;;;0.57;0.40;;;;;;;;;;5002953;28;87096;-50
2023/03/27 09:11:27;;;;;;;0.37;0.37;;;;;;;;;;5003639;28;86358;-50
2023/03/27 09:13:57;;;;;;;0.20;0.20;;;;;;;;;;5002891;28;88065;-50
2023/03/27 09:16:26;;;;;;;0.27;0.27;;;;;;;;;;5002813;28;87798;-50
2023/03/27 09:18:55;;;;;;;0.93;0.40;;;;;;;;;;5002776;28;88186;-50
2023/03/27 09:21:24;;;;;;;0.63;0.53;;;;;;;;;;5002407;28;86912;-50
2023/03/27 09:23:54;;;;;;;0.60;0.60;;;;;;;;;;5002357;28;88105;-49
2023/03/27 09:26:23;;;;;;;0.37;0.37;;;;;;;;;;5002718;28;88922;-49
2023/03/27 09:28:51;;;;;;;0.43;0.40;;;;;;;;;;5002740;28;87014;-50
2023/03/27 09:31:23;;;;;;;0.90;0.90;;;;;;;;;;5002493;28;88699;-49
2023/03/27 09:33:52;;;;;;;0.30;0.30;;;;;;;;;;5001994;28;89146;-50
2023/03/27 09:36:20;;;;;;;2.47;0.80;;;;;;;;;;5002275;28;88914;-50
2023/03/27 09:38:50;;;;;;;3.40;0.40;;;;;;;;;;5002873;28;87021;-49
2023/03/27 09:41:20;;;;;;;0.50;0.50;;;;;;;;;;5002207;28;87206;-50
2023/03/27 09:43:50;;;;;;;0.83;0.63;;;;;;;;;;5001601;28;90123;-50
2023/03/27 09:46:19;;;;;;;1.07;0.43;;;;;;;;;;5002277;28;88792;-50
2023/03/27 09:48:52;;;;;;;0.40;0.40;;;;;;;;;;5002734;28;86900;-50
2023/03/27 09:51:35;;;;;;;0.40;0.40;;;;;;;;;;5002376;28;87121;-50
2023/03/27 09:54:04;;;;;;;0.77;0.40;;;;;;;;;;4999103;28;88264;-49
2023/03/27 09:56:35;;;;;;;1.37;0.93;;;;;;;;;;5002138;28;88844;-49
2023/03/27 09:59:09;;;;;;;0.30;0.30;;;;;;;;;;5002074;28;87154;-49
2023/03/27 10:01:37;;;;;;;0.43;0.43;;;;;;;;;;5001875;28;86296;-49
2023/03/27 10:04:13;;;;;;;0.30;0.30;;;;;;;;;;5001251;28;89117;-49
2023/03/27 10:06:43;;;;;;;0.57;0.57;;;;;;;;;;5001858;28;86934;-49
2023/03/27 10:09:13;;;;;;;0.70;0.70;;;;;;;;;;5001925;28;87950;-49
2023/03/27 10:11:41;;;;;;;1.60;0.73;;;;;;;;;;5001956;28;88407;-48
2023/03/27 10:14:11;;;;;;;0.50;0.50;;;;;;;;;;5001954;28;89048;-49
2023/03/27 10:16:39;;;;;;;1.63;0.60;;;;;;;;;;5001919;28;88882;-49
2023/03/27 10:19:10;;;;;;;1.80;0.40;;;;;;;;;;5001761;28;87161;-49
2023/03/27 10:21:41;;;;;;;0.23;0.23;;;;;;;;;;5001882;28;87081;-49
2023/03/27 10:24:18;;;;;;;2.07;0.67;;;;;;;;;;5002126;28;89238;-49
2023/03/27 10:26:47;;;;;;;0.97;0.40;;;;;;;;;;5002376;28;87778;-49
2023/03/27 10:29:22;;;;;;;0.63;0.30;;;;;;;;;;5002175;28;86917;-49
2023/03/27 10:31:51;;;;;;;0.50;0.47;;;;;;;;;;5001488;28;86862;-49
2023/03/27 10:34:38;;;;;;;0.43;0.40;;;;;;;;;;5000393;28;89085;-48
2023/03/27 10:37:20;;;;;;;0.33;0.30;;;;;;;;;;5001296;28;89866;-49
2023/03/27 10:39:48;;;;;;;0.20;0.20;;;;;;;;;;5001413;28;87106;-49
2023/03/27 10:42:17;;;;;;;1.60;0.83;;;;;;;;;;5001164;28;87063;-49
2023/03/27 10:44:46;;;;;;;0.43;0.43;;;;;;;;;;5002580;28;88285;-49
2023/03/27 10:47:18;;;;;;;0.40;0.40;;;;;;;;;;5005273;28;88858;-49
2023/03/27 10:49:47;;;;;;;0.80;0.80;;;;;;;;;;5005397;28;87034;-49
2023/03/27 10:52:18;;;;;;;1.07;0.53;;;;;;;;;;5005599;28;86317;-49
2023/03/27 10:54:52;;;;;;;0.37;0.37;;;;;;;;;;5005120;28;88035;-49
2023/03/27 10:57:22;;;;;;;0.73;0.53;;;;;;;;;;5004997;28;87981;-49
2023/03/27 10:59:52;;;;;;;0.70;0.70;;;;;;;;;;5004583;28;87942;-49
2023/03/27 11:02:21;;;;;;;2.13;0.37;;;;;;;;;;5004578;28;87094;-49
2023/03/27 11:04:50;;;;;;;0.20;0.20;;;;;;;;;;5004430;28;89305;-49
2023/03/27 11:07:21;;;;;;;0.30;0.30;;;;;;;;;;5004520;28;87948;-49
2023/03/27 11:09:54;;;;;;;2.83;1.00;;;;;;;;;;5004701;28;87116;-49
2023/03/27 11:12:23;;;;;;;1.50;0.67;;;;;;;;;;5004313;28;87058;-49
2023/03/27 11:14:51;;;;;;;0.23;0.23;;;;;;;;;;5004413;28;89146;-49
2023/03/27 11:17:21;;;;;;;0.80;0.40;;;;;;;;;;5005140;28;87987;-49
2023/03/27 11:19:51;;;;;;;0.60;0.60;;;;;;;;;;5004853;28;86941;-49
2023/03/27 11:22:20;;;;;;;0.20;0.20;;;;;;;;;;5004537;28;87099;-49
2023/03/27 11:24:51;;;;;;;0.67;0.47;;;;;;;;;;5004228;28;88829;-49
2023/03/27 11:27:25;;;;;;;0.60;0.60;;;;;;;;;;5004295;28;88754;-49
2023/03/27 11:29:55;;;;;;;2.10;0.60;;;;;;;;;;5002714;28;87037;-50
2023/03/27 11:32:28;;;;;;;0.37;0.30;;;;;;;;;;5003532;28;87092;-49
2023/03/27 11:34:57;;;;;;;0.47;0.47;;;;;;;;;;5003058;28;88844;-49
2023/03/27 11:37:30;;;;;;;0.50;0.50;;;;;;;;;;5003958;28;87977;-49
2023/03/27 11:40:00;;;;;;;8.93;3.10;;;;;;;;;;5003861;28;88145;-48
2023/03/27 11:42:31;;;;;;;3.10;2.00;;;;;;;;;;5003983;28;87357;-49
2023/03/27 11:45:03;;;;;;;42.53;19.33;;;;;;;;;;5003566;28;88274;-49
2023/03/27 11:47:35;;;;;;;43.77;22.07;;;;;;;;;;5003492;28;87811;-50
2023/03/27 11:50:14;;;;;;;40.60;17.30;;;;;;;;;;5003184;28;87688;-49
2023/03/27 11:52:45;;;;;;;38.27;16.93;;;;;;;;;;5002699;28;87065;-48
2023/03/27 11:55:17;;;;;;;21.00;10.00;;;;;;;;;;4998466;28;89287;-49
2023/03/27 11:57:51;;;;;;;21.20;11.13;;;;;;;;;;4988858;28;87972;-49
2023/03/27 12:00:24;;;;;;;16.03;9.37;;;;;;;;;;5000337;28;86975;-49
2023/03/27 12:02:58;;;;;;;17.90;8.20;;;;;;;;;;5003509;28;87042;-49
2023/03/27 12:05:29;;;;;;;14.23;7.63;;;;;;;;;;5003051;28;87114;-49
2023/03/27 12:07:58;;;;;;;11.07;5.87;;;;;;;;;;5003077;28;87555;-49
2023/03/27 12:10:31;;;;;;;13.93;5.60;;;;;;;;;;5004194;28;86948;-49
2023/03/27 12:13:19;;;;;;;10.80;4.60;;;;;;;;;;5003641;28;87060;-49
2023/03/27 12:15:55;;;;;;;12.90;6.13;;;;;;;;;;5002798;28;90286;-49
2023/03/27 12:18:27;;;;;;;11.63;4.70;;;;;;;;;;5003333;28;89973;-48
2023/03/27 12:21:09;;;;;;;12.10;4.70;;;;;;;;;;5002346;28;87006;-49
2023/03/27 12:23:41;;;;;;;7.53;3.80;;;;;;;;;;4987918;28;86945;-49
2023/03/27 12:26:13;;;;;;;8.93;3.73;;;;;;;;;;5003199;28;89095;-49
2023/03/27 12:28:47;;;;;;;11.63;4.03;;;;;;;;;;5002447;28;89139;-49
2023/03/27 12:31:22;;;;;;;13.63;3.63;;;;;;;;;;5003554;28;87109;-49
2023/03/27 12:33:51;;;;;;;4.43;2.97;;;;;;;;;;5003898;28;86132;-49
2023/03/27 12:36:21;;;;;;;9.17;3.20;;;;;;;;;;5002227;28;87736;-49
2023/03/27 12:38:49;;;;;;;3.67;2.60;;;;;;;;;;5002784;28;87996;-49
2023/03/27 12:41:21;;;;;;;5.97;3.10;;;;;;;;;;5002401;28;88452;-49
2023/03/27 12:43:54;;;;;;;5.37;2.17;;;;;;;;;;5002762;28;87018;-49
2023/03/27 12:46:31;;;;;;;5.97;3.40;;;;;;;;;;5002902;28;88169;-49
2023/03/27 12:49:01;;;;;;;5.53;2.17;;;;;;;;;;5002449;28;87025;-49
2023/03/27 12:51:36;;;;;;;7.90;3.03;;;;;;;;;;5002531;28;88066;-49
2023/03/27 12:54:23;;;;;;;4.57;2.80;;;;;;;;;;5003124;28;87066;-49
2023/03/27 12:56:51;;;;;;;5.93;2.77;;;;;;;;;;5002630;28;88064;-49
2023/03/27 12:59:22;;;;;;;3.50;1.93;;;;;;;;;;5002700;28;88785;-49
2023/03/27 13:02:17;;;;;;;3.67;1.73;;;;;;;;;;5002967;28;86959;-49
2023/03/27 13:05:03;;;;;;;2.57;1.67;;;;;;;;;;4987409;28;87135;-49
2023/03/27 13:07:44;;;;;;;2.57;1.40;;;;;;;;;;5000871;28;88922;-49
2023/03/27 13:10:19;;;;;;;2.07;1.60;;;;;;;;;;5002066;28;89779;-49
2023/03/27 13:13:08;;;;;;;1.63;1.20;;;;;;;;;;5002523;28;87111;-49
2023/03/27 13:15:44;;;;;;;2.00;1.60;;;;;;;;;;4999798;28;87044;-50
2023/03/27 13:18:20;;;;;;;2.07;1.27;;;;;;;;;;4996056;28;87805;-50
2023/03/27 13:20:50;;;;;;;1.70;1.40;;;;;;;;;;4997079;28;88864;-49
2023/03/27 13:23:29;;;;;;;2.17;1.20;;;;;;;;;;4993796;28;87145;-49
2023/03/27 13:26:09;;;;;;;2.33;1.30;;;;;;;;;;4991776;28;86367;-49
2023/03/27 13:28:38;;;;;;;3.63;1.33;;;;;;;;;;5002299;28;88139;-49
2023/03/27 13:31:09;;;;;;;3.07;1.13;;;;;;;;;;4995406;28;88534;-49
2023/03/27 13:33:39;;;;;;;1.63;1.00;;;;;;;;;;4983742;28;87959;-49
2023/03/27 13:36:10;;;;;;;2.70;1.33;;;;;;;;;;4982469;28;87087;-49
2023/03/27 13:39:12;;;;;;;1.97;1.00;;;;;;;;;;4982224;28;88058;-49
2023/03/27 13:42:01;;;;;;;1.17;0.70;;;;;;;;;;4982096;28;87885;-49
2023/03/27 13:44:36;;;;;;;2.10;1.47;;;;;;;;;;4982662;28;87031;-49
2023/03/27 13:47:14;;;;;;;1.17;0.77;;;;;;;;;;4982624;28;86920;-49
2023/03/27 13:49:49;;;;;;;1.67;0.80;;;;;;;;;;4982023;28;88294;-50
2023/03/27 13:52:23;;;;;;;3.40;1.13;;;;;;;;;;4982934;28;88773;-49
2023/03/27 13:54:57;;;;;;;1.40;0.73;;;;;;;;;;4982291;28;86993;-49
2023/03/27 13:57:33;;;;;;;3.37;1.00;;;;;;;;;;4981827;28;86983;-49
2023/03/27 14:00:17;;;;;;;1.43;0.77;;;;;;;;;;4981612;28;89101;-49
2023/03/27 14:03:03;;;;;;;2.10;1.13;;;;;;;;;;4980410;28;88686;-49
2023/03/27 14:05:37;;;;;;;1.13;0.70;;;;;;;;;;4982367;28;86929;-49
2023/03/27 14:08:33;;;;;;;3.30;1.00;;;;;;;;;;4982449;28;87004;-49
2023/03/27 14:11:11;;;;;;;1.07;0.70;;;;;;;;;;4947442;28;89233;-49
2023/03/27 14:13:43;;;;;;;1.37;0.70;;;;;;;;;;4981713;28;89090;-49
2023/03/27 14:16:27;;;;;;;1.70;0.87;;;;;;;;;;4982508;28;87102;-49
2023/03/27 14:19:16;;;;;;;0.73;0.73;;;;;;;;;;4949270;28;86444;-49
2023/03/27 14:21:51;;;;;;;1.00;1.00;;;;;;;;;;4977361;28;88111;-49
2023/03/27 14:24:23;;;;;;;1.63;0.67;;;;;;;;;;4981811;28;88876;-49
2023/03/27 14:26:51;;;;;;;6.33;0.90;;;;;;;;;;4981668;28;88016;-49
2023/03/27 14:29:20;;;;;;;0.70;0.70;;;;;;;;;;4982384;28;87028;-49
2023/03/27 14:31:49;;;;;;;0.77;0.40;;;;;;;;;;4981666;28;89100;-49
2023/03/27 14:34:21;;;;;;;0.40;0.40;;;;;;;;;;4982371;28;88623;-49
2023/03/27 14:36:51;;;;;;;0.77;0.50;;;;;;;;;;4981295;28;87116;-49
2023/03/27 14:39:20;;;;;;;0.43;0.43;;;;;;;;;;4981410;28;87033;-49
2023/03/27 14:41:49;;;;;;;1.50;0.80;;;;;;;;;;4981077;28;89147;-49
2023/03/27 14:44:18;;;;;;;0.50;0.50;;;;;;;;;;4982062;28;88990;-49
2023/03/27 14:46:47;;;;;;;0.60;0.60;;;;;;;;;;4981854;28;87032;-49
2023/03/27 14:49:18;;;;;;;0.63;0.50;;;;;;;;;;4981131;28;87118;-49
2023/03/27 14:51:46;;;;;;;2.10;0.80;;;;;;;;;;4981186;28;88977;-49
2023/03/27 14:54:25;;;;;;;0.60;0.50;;;;;;;;;;4981295;28;89892;-49
2023/03/27 14:56:53;;;;;;;0.67;0.60;;;;;;;;;;4981398;28;87108;-49
2023/03/27 14:59:23;;;;;;;0.63;0.63;;;;;;;;;;4981416;28;86808;-49
2023/03/27 15:01:52;;;;;;;0.23;0.23;;;;;;;;;;4981162;28;89172;-49
2023/03/27 15:04:20;;;;;;;0.60;0.60;;;;;;;;;;4981135;28;87827;-49
2023/03/27 15:06:54;;;;;;;0.63;0.60;;;;;;;;;;4981099;28;87148;-49